Buoy 16555

sailwx.info

Track history (hours):
 
Tides and Currents Weather Stations Pressure Air Temp Water Temp Dewpoint Dewpoint Depression Visibility Wind Speed Wind Dir Waves Ship Positions

Drifting buoy 16555

Last reported at 2018-Feb-18 15:00 UTC. Time now 2018-Feb-18 22:28 UTC.
Position S 24°31' E 098°34'.

Barometer 1014.8 mb
Water temperature 23.3 ° C

Date/timePositionNaut miles runAvg speedWind from/ knotsBaromVisibWave heightAir tempDewpointWater temp
2018-Feb-18 15:00S 24°31' E 098°34'2 1.6 1014.8 23.3
2018-Feb-18 14:00S 24°32' E 098°35'0 0.0 1014.8 23.3
2018-Feb-18 12:00S 24°32' E 098°35'1 0.8 1013.9 23.4
2018-Feb-18 11:00S 24°32' E 098°36'1 0.5 1013.4 23.5
2018-Feb-18 10:00S 24°32' E 098°37'4 4.2 1013.0 23.9
2018-Feb-18 09:00S 24°34' E 098°41'1 0.1 1013.0 24.2
2018-Feb-18 03:00S 24°35' E 098°41'1 1.1 1014.5 23.6
2018-Feb-18 02:00S 24°35' E 098°43'1 0.6 1014.5 23.0
2018-Feb-18 01:00S 24°35' E 098°43'2 1.6 1014.0 22.9
2018-Feb-18 00:00S 24°35' E 098°44'0 0.0 1013.6 22.9
2018-Feb-17 23:00S 24°35' E 098°44'2 2.5 1013.1 22.9
2018-Feb-17 22:00S 24°37' E 098°47'2 0.8 1013.0 22.9
2018-Feb-17 20:00S 24°38' E 098°48'2 2.1 1012.5 22.9
2018-Feb-17 19:00S 24°40' E 098°49'2 2.1 1012.5 22.9
2018-Feb-17 18:00S 24°38' E 098°48'3 1.1 1012.8 23.0
2018-Feb-17 15:00S 24°41' E 098°50'2 0.9 1014.0 23.1
2018-Feb-17 13:00S 24°43' E 098°50'1 0.6 1013.6 23.1
2018-Feb-17 12:00S 24°43' E 098°50'1 0.6 1013.2 23.2
2018-Feb-17 11:00S 24°44' E 098°50'0 0.0 1012.9 23.3
2018-Feb-17 10:00S 24°44' E 098°50'1 1.2 1012.9 23.4
2018-Feb-17 09:00S 24°45' E 098°50'3 0.5 1012.8 23.4
2018-Feb-17 03:00S 24°48' E 098°51'1 1.2 1015.1 23.1
2018-Feb-17 02:00S 24°49' E 098°51'0 0.0 1015.2 23.1
2018-Feb-17 01:00S 24°49' E 098°51'1 1.2 1015.3 23.1
2018-Feb-17 00:00S 24°50' E 098°51'0 0.0 1014.9 23.1
2018-Feb-16 23:00S 24°50' E 098°51'0 0.0 1014.5 23.1
2018-Feb-16 22:00S 24°50' E 098°51'4 3.6 1014.3 23.1
2018-Feb-16 21:00S 24°54' E 098°50'0 0.0 1014.2 23.1
2018-Feb-16 20:00S 24°54' E 098°50'0 0.0 1014.5 23.1
2018-Feb-16 19:00S 24°54' E 098°50'0 0.0 1014.9 23.1
2018-Feb-16 18:00S 24°54' E 098°50'0 0.0 1015.6 23.1
2018-Feb-16 15:00S 24°54' E 098°50'1 1.3 1016.2 23.1
2018-Feb-16 14:00S 24°55' E 098°50'1 0.3 1016.1 23.1
2018-Feb-16 12:00S 24°56' E 098°50'0 0.0 1015.3 23.1
2018-Feb-16 11:00S 24°56' E 098°50'1 0.7 1015.3 23.1
2018-Feb-16 09:00S 24°57' E 098°49'0 0.0 1015.1 23.2
2018-Feb-16 08:00S 24°57' E 098°49'2 2.5 1015.5 23.1
2018-Feb-16 07:00S 24°59' E 098°50'1 0.2 1016.0 23.1
2018-Feb-16 02:00S 25°00' E 098°50'1 0.7 1017.9 22.8
2018-Feb-16 00:00S 25°01' E 098°51'1 0.4 1017.6 22.7
2018-Feb-15 22:00S 25°02' E 098°52'1 0.3 1017.0 22.7
2018-Feb-15 20:00S 25°02' E 098°52'3 0.7 1017.4 22.5
2018-Feb-15 16:00S 25°03' E 098°55'2 1.7 1018.7 22.6
2018-Feb-15 15:00S 25°04' E 098°57'1 1.2 1018.8 22.6
2018-Feb-15 14:00S 25°04' E 098°58'2 0.8 1018.7 22.6
2018-Feb-15 12:00S 25°05' E 098°59'2 2.5 1017.7 22.7
2018-Feb-15 11:00S 25°08' E 099°00'2 2.5 1017.4 22.8
2018-Feb-15 10:00S 25°10' E 099°01'0 0.0 1017.3 22.8
2018-Feb-15 09:00S 25°10' E 099°01'4 3.6 1017.6 22.8
2018-Feb-15 08:00S 25°14' E 099°01'0 0.0 1018.2 22.8
2018-Feb-15 07:00S 25°14' E 099°01'1 0.1 1018.6 22.8
2018-Feb-15 03:00S 25°14' E 099°01'2 1.8 1020.3 22.6
2018-Feb-15 02:00S 25°16' E 099°01'1 0.6 1020.3 22.6
2018-Feb-15 01:00S 25°17' E 099°01'1 0.6 1020.0 22.5
2018-Feb-15 00:00S 25°17' E 099°01'0 0.0 1019.6 22.5
2018-Feb-14 23:00S 25°17' E 099°01'1 1.3 1018.8 22.5
2018-Feb-14 22:00S 25°19' E 099°00'1 0.8 1018.6 22.6
2018-Feb-14 21:00S 25°19' E 098°59'2 0.4 1018.5 22.6
2018-Feb-14 16:00S 25°21' E 098°59'1 0.4 1019.5 22.6
2018-Feb-14 14:00S 25°22' E 098°59'1 1.3 1019.3 22.6
2018-Feb-14 13:00S 25°23' E 098°58'1 1.2 1018.8 22.7
2018-Feb-14 12:00S 25°24' E 098°58'0 0.0 1018.3 22.7
2018-Feb-14 11:00S 25°24' E 098°58'1 0.8 1017.7 22.8
2018-Feb-14 10:00S 25°25' E 098°58'5 1.6 1017.4 22.8
2018-Feb-14 07:00S 25°29' E 098°56'0 0.0 1017.8 22.8
2018-Feb-14 03:00S 25°29' E 098°56'2 1.0 1018.9 22.3
2018-Feb-14 01:00S 25°31' E 098°58'1 0.8 1019.3 22.2
2018-Feb-14 00:00S 25°31' E 098°59'0 0.0 1018.9 22.2
2018-Feb-13 23:00S 25°31' E 098°59'3 3.3 1018.5 22.2
2018-Feb-13 22:00S 25°33' E 099°02'0 0.0 1018.4 22.2
2018-Feb-13 21:00S 25°33' E 099°02'0 0.0 1018.4 22.2
2018-Feb-13 20:00S 25°33' E 099°02'5 1.0 1018.5 22.2
2018-Feb-13 15:00S 25°38' E 099°03'0 0.0 1019.6 22.2
2018-Feb-13 14:00S 25°38' E 099°03'2 2.4 1019.4 22.2
2018-Feb-13 13:00S 25°40' E 099°05'3 1.4 1019.0 22.2
2018-Feb-13 11:00S 25°41' E 099°07'1 0.8 1018.1 22.4
2018-Feb-13 10:00S 25°42' E 099°08'1 1.2 1017.9 22.4
2018-Feb-13 09:00S 25°43' E 099°09'7 1.0 1017.8 22.4
2018-Feb-13 02:00S 25°46' E 099°16'1 1.3 1019.8 22.2
2018-Feb-13 01:00S 25°47' E 099°16'2 1.6 1019.8 22.2
2018-Feb-13 00:00S 25°49' E 099°17'2 1.2 1019.4 22.2
2018-Feb-12 22:00S 25°50' E 099°19'0 0.0 1018.7 22.3
2018-Feb-12 20:00S 25°50' E 099°19'5 1.1 1018.6 22.2
2018-Feb-12 15:00S 25°56' E 099°20'2 1.2 1019.2 22.3
2018-Feb-12 13:00S 25°58' E 099°19'2 1.9 1018.6 22.3
2018-Feb-12 12:00S 26°00' E 099°19'2 2.1 1018.0 22.3
2018-Feb-12 11:00S 26°02' E 099°20'2 1.8 1017.5 22.3
2018-Feb-12 10:00S 26°04' E 099°20'4 0.6 1017.3 22.2
2018-Feb-12 03:00S 26°07' E 099°23'1 0.4 1019.3 21.9
2018-Feb-12 00:00S 26°07' E 099°24'0 0.0 1018.8 21.9
2018-Feb-11 23:00S 26°07' E 099°24'1 1.2 1018.3 21.9
2018-Feb-11 22:00S 26°08' E 099°25'0 0.0 1018.1 21.9
2018-Feb-11 21:00S 26°08' E 099°25'2 2.0 1017.7 21.9
2018-Feb-11 20:00S 26°09' E 099°27'0 0.0 1017.6 21.9
2018-Feb-11 15:00S 26°09' E 099°27'1 0.8 1018.9 21.9
2018-Feb-11 14:00S 26°10' E 099°28'2 2.5 1018.6 21.9
2018-Feb-11 13:00S 26°11' E 099°30'0 0.0 1018.5 21.9
2018-Feb-11 12:00S 26°11' E 099°30'1 0.4 1017.8 21.9
2018-Feb-11 10:00S 26°11' E 099°31'1 0.6 1017.6 21.9
2018-Feb-11 09:00S 26°12' E 099°31'2 1.6 1017.7 22.0
2018-Feb-11 08:00S 26°12' E 099°32'1 0.1 1017.8 22.0
2018-Feb-11 02:00S 26°13' E 099°33'1 1.2 1019.8 21.8
2018-Feb-11 01:00S 26°13' E 099°34'0 0.0 1019.7 21.8
2018-Feb-11 00:00S 26°13' E 099°34'1 0.5 1019.3 21.8
2018-Feb-10 23:00S 26°13' E 099°35'1 0.5 1018.7 21.8
2018-Feb-10 22:00S 26°13' E 099°35'0 0.0 1018.0 21.8
2018-Feb-10 21:00S 26°13' E 099°35'2 2.5 1017.8 21.9
2018-Feb-10 20:00S 26°14' E 099°38'1 0.2 1018.0 21.9
2018-Feb-10 15:00S 26°15' E 099°39'1 0.8 1019.5 21.8
2018-Feb-10 14:00S 26°16' E 099°38'1 1.1 1019.4 21.8
2018-Feb-10 13:00S 26°16' E 099°40'1 0.4 1019.1 21.9
2018-Feb-10 11:00S 26°16' E 099°40'1 0.5 1018.3 21.9
2018-Feb-10 10:00S 26°16' E 099°41'3 2.6 1018.1 21.9
2018-Feb-10 09:00S 26°19' E 099°42'0 0.0 1018.2 21.9
2018-Feb-10 08:00S 26°19' E 099°42'1 0.1 1018.5 21.9
2018-Feb-10 03:00S 26°19' E 099°43'1 0.6 1020.7 21.8
2018-Feb-10 02:00S 26°19' E 099°43'0 0.0 1020.6 21.8
2018-Feb-10 01:00S 26°19' E 099°43'2 1.6 1020.4 21.7
2018-Feb-10 00:00S 26°20' E 099°44'0 0.0 1019.9 21.8
2018-Feb-09 23:00S 26°20' E 099°44'1 0.5 1019.4 21.7
2018-Feb-09 22:00S 26°20' E 099°43'0 0.0 1018.9 21.7
2018-Feb-09 21:00S 26°20' E 099°43'2 1.7 1018.5 21.7
2018-Feb-09 20:00S 26°21' E 099°45'0 0.0 1018.6 21.7
2018-Feb-09 19:00S 26°21' E 099°45'0 0.0 1018.9 21.8
2018-Feb-09 18:00S 26°21' E 099°45'1 0.4 1019.1 21.8
2018-Feb-09 15:00S 26°22' E 099°46'1 0.6 1020.3 21.8
2018-Feb-09 14:00S 26°23' E 099°46'1 0.5 1020.2 21.8
2018-Feb-09 12:00S 26°23' E 099°47'0 0.0 1019.4 21.8
2018-Feb-09 11:00S 26°23' E 099°47'1 0.8 1018.9 21.8
2018-Feb-09 10:00S 26°23' E 099°47'0 0.0 1018.4 21.8
2018-Feb-09 09:00S 26°23' E 099°47'3 0.5 1018.6 21.8
2018-Feb-09 03:00S 26°26' E 099°50'1 0.7 1019.6 21.7
2018-Feb-09 01:00S 26°27' E 099°50'0 0.0 1019.1 21.7
2018-Feb-09 00:00S 26°27' E 099°50'1 0.8 1018.7 21.7
2018-Feb-08 23:00S 26°28' E 099°51'0 0.0 1018.2 21.7
2018-Feb-08 21:00S 26°28' E 099°51'1 0.8 1017.2 21.7
2018-Feb-08 20:00S 26°28' E 099°52'0 0.0 1017.0 21.7
2018-Feb-08 19:00S 26°28' E 099°52'0 0.0 1017.0 21.8
2018-Feb-08 18:00S 26°28' E 099°52'2 0.8 1017.4 21.8
2018-Feb-08 15:00S 26°30' E 099°53'   1018.2 21.8
Track history (hours):
 
Tides and Currents Weather Stations Pressure Air Temp Water Temp Dewpoint Dewpoint Depression Visibility Wind Speed Wind Dir Waves Ship Positions

Drifting buoy 16555

Last reported at 2018-Feb-18 15:00 UTC. Time now 2018-Feb-18 22:28 UTC.
Position S 24°31' E 098°34'.

Barometer 1014.8 mb
Water temperature 23.3 ° C

Date/timePositionNaut miles runAvg speedWind from/ knotsBaromVisibWave heightAir tempDewpointWater temp
2018-Feb-18 15:00S 24°31' E 098°34'2 1.6 1014.8 23.3
2018-Feb-18 14:00S 24°32' E 098°35'0 0.0 1014.8 23.3
2018-Feb-18 12:00S 24°32' E 098°35'1 0.8 1013.9 23.4
2018-Feb-18 11:00S 24°32' E 098°36'1 0.5 1013.4 23.5
2018-Feb-18 10:00S 24°32' E 098°37'4 4.2 1013.0 23.9
2018-Feb-18 09:00S 24°34' E 098°41'1 0.1 1013.0 24.2
2018-Feb-18 03:00S 24°35' E 098°41'1 1.1 1014.5 23.6
2018-Feb-18 02:00S 24°35' E 098°43'1 0.6 1014.5 23.0
2018-Feb-18 01:00S 24°35' E 098°43'2 1.6 1014.0 22.9
2018-Feb-18 00:00S 24°35' E 098°44'0 0.0 1013.6 22.9
2018-Feb-17 23:00S 24°35' E 098°44'2 2.5 1013.1 22.9
2018-Feb-17 22:00S 24°37' E 098°47'2 0.8 1013.0 22.9
2018-Feb-17 20:00S 24°38' E 098°48'2 2.1 1012.5 22.9
2018-Feb-17 19:00S 24°40' E 098°49'2 2.1 1012.5 22.9
2018-Feb-17 18:00S 24°38' E 098°48'3 1.1 1012.8 23.0
2018-Feb-17 15:00S 24°41' E 098°50'2 0.9 1014.0 23.1
2018-Feb-17 13:00S 24°43' E 098°50'1 0.6 1013.6 23.1
2018-Feb-17 12:00S 24°43' E 098°50'1 0.6 1013.2 23.2
2018-Feb-17 11:00S 24°44' E 098°50'0 0.0 1012.9 23.3
2018-Feb-17 10:00S 24°44' E 098°50'1 1.2 1012.9 23.4
2018-Feb-17 09:00S 24°45' E 098°50'3 0.5 1012.8 23.4
2018-Feb-17 03:00S 24°48' E 098°51'1 1.2 1015.1 23.1
2018-Feb-17 02:00S 24°49' E 098°51'0 0.0 1015.2 23.1
2018-Feb-17 01:00S 24°49' E 098°51'1 1.2 1015.3 23.1
2018-Feb-17 00:00S 24°50' E 098°51'0 0.0 1014.9 23.1
2018-Feb-16 23:00S 24°50' E 098°51'0 0.0 1014.5 23.1
2018-Feb-16 22:00S 24°50' E 098°51'4 3.6 1014.3 23.1
2018-Feb-16 21:00S 24°54' E 098°50'0 0.0 1014.2 23.1
2018-Feb-16 20:00S 24°54' E 098°50'0 0.0 1014.5 23.1
2018-Feb-16 19:00S 24°54' E 098°50'0 0.0 1014.9 23.1
2018-Feb-16 18:00S 24°54' E 098°50'0 0.0 1015.6 23.1
2018-Feb-16 15:00S 24°54' E 098°50'1 1.3 1016.2 23.1
2018-Feb-16 14:00S 24°55' E 098°50'1 0.3 1016.1 23.1
2018-Feb-16 12:00S 24°56' E 098°50'0 0.0 1015.3 23.1
2018-Feb-16 11:00S 24°56' E 098°50'1 0.7 1015.3 23.1
2018-Feb-16 09:00S 24°57' E 098°49'0 0.0 1015.1 23.2
2018-Feb-16 08:00S 24°57' E 098°49'2 2.5 1015.5 23.1
2018-Feb-16 07:00S 24°59' E 098°50'1 0.2 1016.0 23.1
2018-Feb-16 02:00S 25°00' E 098°50'1 0.7 1017.9 22.8
2018-Feb-16 00:00S 25°01' E 098°51'1 0.4 1017.6 22.7
2018-Feb-15 22:00S 25°02' E 098°52'1 0.3 1017.0 22.7
2018-Feb-15 20:00S 25°02' E 098°52'3 0.7 1017.4 22.5
2018-Feb-15 16:00S 25°03' E 098°55'2 1.7 1018.7 22.6
2018-Feb-15 15:00S 25°04' E 098°57'1 1.2 1018.8 22.6
2018-Feb-15 14:00S 25°04' E 098°58'2 0.8 1018.7 22.6
2018-Feb-15 12:00S 25°05' E 098°59'2 2.5 1017.7 22.7
2018-Feb-15 11:00S 25°08' E 099°00'2 2.5 1017.4 22.8
2018-Feb-15 10:00S 25°10' E 099°01'0 0.0 1017.3 22.8
2018-Feb-15 09:00S 25°10' E 099°01'4 3.6 1017.6 22.8
2018-Feb-15 08:00S 25°14' E 099°01'0 0.0 1018.2 22.8
2018-Feb-15 07:00S 25°14' E 099°01'1 0.1 1018.6 22.8
2018-Feb-15 03:00S 25°14' E 099°01'2 1.8 1020.3 22.6
2018-Feb-15 02:00S 25°16' E 099°01'1 0.6 1020.3 22.6
2018-Feb-15 01:00S 25°17' E 099°01'1 0.6 1020.0 22.5
2018-Feb-15 00:00S 25°17' E 099°01'0 0.0 1019.6 22.5
2018-Feb-14 23:00S 25°17' E 099°01'1 1.3 1018.8 22.5
2018-Feb-14 22:00S 25°19' E 099°00'1 0.8 1018.6 22.6
2018-Feb-14 21:00S 25°19' E 098°59'2 0.4 1018.5 22.6
2018-Feb-14 16:00S 25°21' E 098°59'1 0.4 1019.5 22.6
2018-Feb-14 14:00S 25°22' E 098°59'1 1.3 1019.3 22.6
2018-Feb-14 13:00S 25°23' E 098°58'1 1.2 1018.8 22.7
2018-Feb-14 12:00S 25°24' E 098°58'0 0.0 1018.3 22.7
2018-Feb-14 11:00S 25°24' E 098°58'1 0.8 1017.7 22.8
2018-Feb-14 10:00S 25°25' E 098°58'5 1.6 1017.4 22.8
2018-Feb-14 07:00S 25°29' E 098°56'0 0.0 1017.8 22.8
2018-Feb-14 03:00S 25°29' E 098°56'2 1.0 1018.9 22.3
2018-Feb-14 01:00S 25°31' E 098°58'1 0.8 1019.3 22.2
2018-Feb-14 00:00S 25°31' E 098°59'0 0.0 1018.9 22.2
2018-Feb-13 23:00S 25°31' E 098°59'3 3.3 1018.5 22.2
2018-Feb-13 22:00S 25°33' E 099°02'0 0.0 1018.4 22.2
2018-Feb-13 21:00S 25°33' E 099°02'0 0.0 1018.4 22.2
2018-Feb-13 20:00S 25°33' E 099°02'5 1.0 1018.5 22.2
2018-Feb-13 15:00S 25°38' E 099°03'0 0.0 1019.6 22.2
2018-Feb-13 14:00S 25°38' E 099°03'2 2.4 1019.4 22.2
2018-Feb-13 13:00S 25°40' E 099°05'3 1.4 1019.0 22.2
2018-Feb-13 11:00S 25°41' E 099°07'1 0.8 1018.1 22.4
2018-Feb-13 10:00S 25°42' E 099°08'1 1.2 1017.9 22.4
2018-Feb-13 09:00S 25°43' E 099°09'7 1.0 1017.8 22.4
2018-Feb-13 02:00S 25°46' E 099°16'1 1.3 1019.8 22.2
2018-Feb-13 01:00S 25°47' E 099°16'2 1.6 1019.8 22.2
2018-Feb-13 00:00S 25°49' E 099°17'2 1.2 1019.4 22.2
2018-Feb-12 22:00S 25°50' E 099°19'0 0.0 1018.7 22.3
2018-Feb-12 20:00S 25°50' E 099°19'5 1.1 1018.6 22.2
2018-Feb-12 15:00S 25°56' E 099°20'2 1.2 1019.2 22.3
2018-Feb-12 13:00S 25°58' E 099°19'2 1.9 1018.6 22.3
2018-Feb-12 12:00S 26°00' E 099°19'2 2.1 1018.0 22.3
2018-Feb-12 11:00S 26°02' E 099°20'2 1.8 1017.5 22.3
2018-Feb-12 10:00S 26°04' E 099°20'4 0.6 1017.3 22.2
2018-Feb-12 03:00S 26°07' E 099°23'1 0.4 1019.3 21.9
2018-Feb-12 00:00S 26°07' E 099°24'0 0.0 1018.8 21.9
2018-Feb-11 23:00S 26°07' E 099°24'1 1.2 1018.3 21.9
2018-Feb-11 22:00S 26°08' E 099°25'0 0.0 1018.1 21.9
2018-Feb-11 21:00S 26°08' E 099°25'2 2.0 1017.7 21.9
2018-Feb-11 20:00S 26°09' E 099°27'0 0.0 1017.6 21.9
2018-Feb-11 15:00S 26°09' E 099°27'1 0.8 1018.9 21.9
2018-Feb-11 14:00S 26°10' E 099°28'2 2.5 1018.6 21.9
2018-Feb-11 13:00S 26°11' E 099°30'0 0.0 1018.5 21.9
2018-Feb-11 12:00S 26°11' E 099°30'1 0.4 1017.8 21.9
2018-Feb-11 10:00S 26°11' E 099°31'1 0.6 1017.6 21.9
2018-Feb-11 09:00S 26°12' E 099°31'2 1.6 1017.7 22.0
2018-Feb-11 08:00S 26°12' E 099°32'1 0.1 1017.8 22.0
2018-Feb-11 02:00S 26°13' E 099°33'1 1.2 1019.8 21.8
2018-Feb-11 01:00S 26°13' E 099°34'0 0.0 1019.7 21.8
2018-Feb-11 00:00S 26°13' E 099°34'1 0.5 1019.3 21.8
2018-Feb-10 23:00S 26°13' E 099°35'1 0.5 1018.7 21.8
2018-Feb-10 22:00S 26°13' E 099°35'0 0.0 1018.0 21.8
2018-Feb-10 21:00S 26°13' E 099°35'2 2.5 1017.8 21.9
2018-Feb-10 20:00S 26°14' E 099°38'1 0.2 1018.0 21.9
2018-Feb-10 15:00S 26°15' E 099°39'1 0.8 1019.5 21.8
2018-Feb-10 14:00S 26°16' E 099°38'1 1.1 1019.4 21.8
2018-Feb-10 13:00S 26°16' E 099°40'1 0.4 1019.1 21.9
2018-Feb-10 11:00S 26°16' E 099°40'1 0.5 1018.3 21.9
2018-Feb-10 10:00S 26°16' E 099°41'3 2.6 1018.1 21.9
2018-Feb-10 09:00S 26°19' E 099°42'0 0.0 1018.2 21.9
2018-Feb-10 08:00S 26°19' E 099°42'1 0.1 1018.5 21.9
2018-Feb-10 03:00S 26°19' E 099°43'1 0.6 1020.7 21.8
2018-Feb-10 02:00S 26°19' E 099°43'0 0.0 1020.6 21.8
2018-Feb-10 01:00S 26°19' E 099°43'2 1.6 1020.4 21.7
2018-Feb-10 00:00S 26°20' E 099°44'0 0.0 1019.9 21.8
2018-Feb-09 23:00S 26°20' E 099°44'1 0.5 1019.4 21.7
2018-Feb-09 22:00S 26°20' E 099°43'0 0.0 1018.9 21.7
2018-Feb-09 21:00S 26°20' E 099°43'2 1.7 1018.5 21.7
2018-Feb-09 20:00S 26°21' E 099°45'0 0.0 1018.6 21.7
2018-Feb-09 19:00S 26°21' E 099°45'0 0.0 1018.9 21.8
2018-Feb-09 18:00S 26°21' E 099°45'1 0.4 1019.1 21.8
2018-Feb-09 15:00S 26°22' E 099°46'1 0.6 1020.3 21.8
2018-Feb-09 14:00S 26°23' E 099°46'1 0.5 1020.2 21.8
2018-Feb-09 12:00S 26°23' E 099°47'0 0.0 1019.4 21.8
2018-Feb-09 11:00S 26°23' E 099°47'1 0.8 1018.9 21.8
2018-Feb-09 10:00S 26°23' E 099°47'0 0.0 1018.4 21.8
2018-Feb-09 09:00S 26°23' E 099°47'3 0.5 1018.6 21.8
2018-Feb-09 03:00S 26°26' E 099°50'1 0.7 1019.6 21.7
2018-Feb-09 01:00S 26°27' E 099°50'0 0.0 1019.1 21.7
2018-Feb-09 00:00S 26°27' E 099°50'1 0.8 1018.7 21.7
2018-Feb-08 23:00S 26°28' E 099°51'0 0.0 1018.2 21.7
2018-Feb-08 21:00S 26°28' E 099°51'1 0.8 1017.2 21.7
2018-Feb-08 20:00S 26°28' E 099°52'0 0.0 1017.0 21.7
2018-Feb-08 19:00S 26°28' E 099°52'0 0.0 1017.0 21.8
2018-Feb-08 18:00S 26°28' E 099°52'2 0.8 1017.4 21.8
2018-Feb-08 15:00S 26°30' E 099°53'   1018.2 21.8

Dump ship's entire track history